createdAt,value
2017-08-30T00:01:29.359Z,13.97
2017-08-30T00:03:57.576Z,13.93
2017-08-30T00:06:24.995Z,15.13
2017-08-30T00:08:52.423Z,14.83
2017-08-30T00:11:20.247Z,14.20
2017-08-30T00:13:47.681Z,16.00
2017-08-30T00:16:15.115Z,14.20
2017-08-30T00:18:42.534Z,14.67
2017-08-30T00:21:09.957Z,18.60
2017-08-30T00:23:37.386Z,18.03
2017-08-30T00:26:16.510Z,16.23
2017-08-30T00:28:43.940Z,16.63
2017-08-30T00:31:11.352Z,16.20
2017-08-30T00:33:38.801Z,16.20
2017-08-30T00:36:06.217Z,17.77
2017-08-30T00:38:34.162Z,16.20
2017-08-30T00:41:01.574Z,16.30
2017-08-30T00:43:29.004Z,16.70
2017-08-30T00:45:56.414Z,22.90
2017-08-30T00:48:24.572Z,16.63
2017-08-30T00:50:52.786Z,15.20
2017-08-30T00:53:20.216Z,15.73
2017-08-30T00:55:47.705Z,24.03
2017-08-30T00:58:15.741Z,19.10
2017-08-30T01:00:43.162Z,18.97
2017-08-30T01:03:10.591Z,18.00
2017-08-30T01:05:38.021Z,18.37
2017-08-30T01:08:05.443Z,18.20
2017-08-30T01:10:32.868Z,19.87
2017-08-30T01:13:00.287Z,19.47
2017-08-30T01:15:27.710Z,23.13
2017-08-30T01:17:55.142Z,20.80
2017-08-30T01:20:22.796Z,22.77
2017-08-30T01:22:50.232Z,21.27
2017-08-30T01:25:17.646Z,20.90
2017-08-30T01:27:45.074Z,19.57
2017-08-30T01:30:12.982Z,19.80
2017-08-30T01:32:40.431Z,18.77
2017-08-30T01:35:07.858Z,21.13
2017-08-30T01:37:35.277Z,20.40
2017-08-30T01:40:02.712Z,20.80
2017-08-30T01:42:30.137Z,23.77
2017-08-30T01:44:58.232Z,19.43
2017-08-30T01:47:25.662Z,19.73
2017-08-30T01:49:53.086Z,18.40
2017-08-30T01:52:21.480Z,20.43
2017-08-30T01:54:48.911Z,21.40
2017-08-30T01:57:16.326Z,19.43
2017-08-30T01:59:44.242Z,20.10
2017-08-30T02:02:11.672Z,18.93
2017-08-30T02:04:39.617Z,18.73
2017-08-30T02:07:07.038Z,20.43
2017-08-30T02:09:34.475Z,18.47
2017-08-30T02:12:02.415Z,20.80
2017-08-30T02:14:29.861Z,16.83
2017-08-30T02:16:57.283Z,16.00
2017-08-30T02:19:24.716Z,19.20
2017-08-30T02:21:52.144Z,17.30
2017-08-30T02:24:19.569Z,17.60
2017-08-30T02:26:46.986Z,17.07
2017-08-30T02:29:14.419Z,19.10
2017-08-30T02:31:41.860Z,16.57
2017-08-30T02:34:09.284Z,19.97
2017-08-30T02:36:36.693Z,19.20
2017-08-30T02:39:04.127Z,16.90
2017-08-30T02:41:31.563Z,18.47
2017-08-30T02:43:59.775Z,20.70
2017-08-30T02:46:27.198Z,16.93
2017-08-30T02:48:55.405Z,17.33
2017-08-30T02:51:22.822Z,19.03
2017-08-30T02:53:50.258Z,23.37
2017-08-30T02:56:17.674Z,21.47
2017-08-30T02:58:45.102Z,18.40
2017-08-30T03:01:12.538Z,19.30
2017-08-30T03:03:39.961Z,18.70
2017-08-30T03:06:07.389Z,21.93
2017-08-30T03:08:34.806Z,17.63
2017-08-30T03:11:02.222Z,18.13
2017-08-30T03:13:29.641Z,18.30
2017-08-30T03:15:57.062Z,18.30
2017-08-30T03:18:24.486Z,16.97
2017-08-30T03:20:52.406Z,22.10
2017-08-30T03:23:19.835Z,18.53
2017-08-30T03:25:47.246Z,20.87
2017-08-30T03:28:14.681Z,19.87
2017-08-30T03:30:42.099Z,19.97
2017-08-30T03:33:09.521Z,21.90
2017-08-30T03:35:36.947Z,26.27
2017-08-30T03:38:04.381Z,19.57
2017-08-30T03:40:31.803Z,24.87
2017-08-30T03:42:59.223Z,20.37
2017-08-30T03:45:26.660Z,22.93
2017-08-30T03:47:54.067Z,24.80
2017-08-30T03:50:21.513Z,22.63
2017-08-30T03:52:48.948Z,24.43
2017-08-30T03:55:16.379Z,22.80
2017-08-30T03:57:43.804Z,22.97
2017-08-30T04:00:11.230Z,22.17
2017-08-30T04:02:38.666Z,23.80
2017-08-30T04:05:06.076Z,26.50
2017-08-30T04:07:33.513Z,25.23
2017-08-30T04:10:01.715Z,28.10
2017-08-30T04:12:29.138Z,24.67
2017-08-30T04:14:56.564Z,27.03
2017-08-30T04:17:23.994Z,24.00
2017-08-30T04:19:51.420Z,30.73
2017-08-30T04:22:18.850Z,27.20
2017-08-30T04:24:46.279Z,24.40
2017-08-30T04:27:13.706Z,21.27
2017-08-30T04:29:41.114Z,23.27
2017-08-30T04:32:08.551Z,21.10
2017-08-30T04:34:35.966Z,22.57
2017-08-30T04:37:03.395Z,25.30
2017-08-30T04:39:30.806Z,24.50
2017-08-30T04:41:58.238Z,23.97
2017-08-30T04:44:25.650Z,25.20
2017-08-30T04:46:53.080Z,27.63
2017-08-30T04:49:20.496Z,22.40
2017-08-30T04:51:47.927Z,22.77
2017-08-30T04:54:15.346Z,26.77
2017-08-30T04:56:42.775Z,23.60
2017-08-30T04:59:10.198Z,23.83
2017-08-30T05:01:38.341Z,25.07
2017-08-30T05:04:05.758Z,23.93
2017-08-30T05:06:33.186Z,24.47
2017-08-30T05:09:00.614Z,19.50
2017-08-30T05:11:28.044Z,21.57
2017-08-30T05:13:55.477Z,19.23
2017-08-30T05:16:22.894Z,18.50
2017-08-30T05:18:50.325Z,18.63
2017-08-30T05:21:17.775Z,19.90
2017-08-30T05:23:45.190Z,22.80
2017-08-30T05:26:12.614Z,18.20
2017-08-30T05:28:40.050Z,18.40
2017-08-30T05:31:07.507Z,18.80
2017-08-30T05:33:34.917Z,17.87
2017-08-30T05:36:02.333Z,16.13
2017-08-30T05:38:29.762Z,17.77
2017-08-30T05:40:57.186Z,17.03
2017-08-30T05:43:24.610Z,17.30
2017-08-30T05:45:52.031Z,17.70
2017-08-30T05:48:19.457Z,17.37
2017-08-30T05:50:46.870Z,16.67
2017-08-30T05:53:14.343Z,17.57
2017-08-30T05:55:41.766Z,15.23
2017-08-30T05:58:09.199Z,14.47
2017-08-30T06:00:36.615Z,16.77
2017-08-30T06:03:04.044Z,14.27
2017-08-30T06:05:31.721Z,14.20
2017-08-30T06:07:59.135Z,13.27
2017-08-30T06:10:26.545Z,14.73
2017-08-30T06:12:53.982Z,14.83
2017-08-30T06:15:21.403Z,13.23
2017-08-30T06:17:48.828Z,14.17
2017-08-30T06:20:16.247Z,12.60
2017-08-30T06:22:43.693Z,11.97
2017-08-30T06:25:11.102Z,12.23
2017-08-30T06:27:38.530Z,11.90
2017-08-30T06:30:05.946Z,12.13
2017-08-30T06:32:34.142Z,12.90
2017-08-30T06:35:01.572Z,11.40
2017-08-30T06:37:28.984Z,12.80
2017-08-30T06:39:56.798Z,10.90
2017-08-30T06:42:24.213Z,11.90
2017-08-30T06:44:51.643Z,11.50
2017-08-30T06:47:19.469Z,12.80
2017-08-30T06:49:48.013Z,11.30
2017-08-30T06:52:15.415Z,12.50
2017-08-30T06:54:42.832Z,10.27
2017-08-30T06:57:10.254Z,12.03
2017-08-30T06:59:37.675Z,13.10
2017-08-30T07:02:05.148Z,10.63
2017-08-30T07:04:32.566Z,10.73
2017-08-30T07:06:59.988Z,9.97
2017-08-30T07:09:27.401Z,8.33
2017-08-30T07:11:54.822Z,8.33
2017-08-30T07:14:22.290Z,9.67
2017-08-30T07:16:49.714Z,8.23
2017-08-30T07:19:17.135Z,8.47
2017-08-30T07:21:44.564Z,9.70
2017-08-30T07:24:11.980Z,8.20
2017-08-30T07:26:39.395Z,8.37
2017-08-30T07:29:06.810Z,8.53
2017-08-30T07:31:34.225Z,7.13
2017-08-30T07:34:01.648Z,8.70
2017-08-30T07:36:29.999Z,8.50
2017-08-30T07:38:57.429Z,10.70
2017-08-30T07:41:24.864Z,9.80
2017-08-30T07:43:52.268Z,8.80
2017-08-30T07:46:19.686Z,11.37
2017-08-30T07:48:47.163Z,10.57
2017-08-30T07:51:14.554Z,8.20
2017-08-30T07:53:41.971Z,11.47
2017-08-30T07:56:09.386Z,9.23
2017-08-30T07:58:36.807Z,9.90
2017-08-30T08:01:04.222Z,10.03
2017-08-30T08:03:31.641Z,8.63
2017-08-30T08:05:59.059Z,9.27
2017-08-30T08:08:26.483Z,8.53
2017-08-30T08:10:54.673Z,10.47
2017-08-30T08:13:22.091Z,8.83
2017-08-30T08:15:49.502Z,8.10
2017-08-30T08:18:16.923Z,9.50
2017-08-30T08:20:44.340Z,8.70
2017-08-30T08:23:11.753Z,8.80
2017-08-30T08:25:39.174Z,8.23
2017-08-30T08:28:06.582Z,9.27
2017-08-30T08:30:34.005Z,9.53
2017-08-30T08:33:01.412Z,8.40
2017-08-30T08:35:28.832Z,9.47
2017-08-30T08:37:56.249Z,9.30
2017-08-30T08:40:23.677Z,10.43
2017-08-30T08:42:51.081Z,8.93
2017-08-30T08:45:18.499Z,9.03
2017-08-30T08:47:45.919Z,9.63
2017-08-30T08:50:13.334Z,8.83
2017-08-30T08:52:40.784Z,8.70
2017-08-30T08:55:08.166Z,8.87
2017-08-30T08:57:35.579Z,8.27
2017-08-30T09:00:03.002Z,11.13
2017-08-30T09:02:30.423Z,8.03
2017-08-30T09:04:57.845Z,10.10
2017-08-30T09:07:25.264Z,6.77
2017-08-30T09:09:52.691Z,8.97
2017-08-30T09:12:20.175Z,7.27
2017-08-30T09:14:48.364Z,5.67
2017-08-30T09:17:16.453Z,8.03
2017-08-30T09:19:43.890Z,9.20
2017-08-30T09:22:11.308Z,6.83
2017-08-30T09:24:38.775Z,7.03
2017-08-30T09:27:06.194Z,5.80
2017-08-30T09:29:33.615Z,6.73
2017-08-30T09:32:01.038Z,8.33
2017-08-30T09:34:28.887Z,7.50
2017-08-30T09:36:56.311Z,7.23
2017-08-30T09:39:23.718Z,6.03
2017-08-30T09:41:51.142Z,8.73
2017-08-30T09:44:19.067Z,8.97
2017-08-30T09:46:47.157Z,6.73
2017-08-30T09:49:14.561Z,5.77
2017-08-30T09:51:41.995Z,7.77
2017-08-30T09:54:09.410Z,8.30
2017-08-30T09:56:36.862Z,8.03
2017-08-30T09:59:04.287Z,6.73
2017-08-30T10:01:31.731Z,9.63
2017-08-30T10:03:59.135Z,9.53
2017-08-30T10:06:26.548Z,11.00
2017-08-30T10:08:53.971Z,8.27
2017-08-30T10:11:21.381Z,12.00
2017-08-30T10:13:48.806Z,7.57
2017-08-30T10:16:16.218Z,10.37
2017-08-30T10:18:43.653Z,7.50
2017-08-30T10:21:11.058Z,8.33
2017-08-30T10:23:39.371Z,8.53
2017-08-30T10:26:06.778Z,7.60
2017-08-30T10:28:34.582Z,8.57
2017-08-30T10:31:01.995Z,8.33
2017-08-30T10:33:30.236Z,9.00
2017-08-30T10:35:57.650Z,8.13
2017-08-30T10:38:25.066Z,8.67
2017-08-30T10:40:52.475Z,11.47
2017-08-30T10:43:19.895Z,8.17
2017-08-30T10:45:47.313Z,7.90
2017-08-30T10:48:14.722Z,9.20
2017-08-30T10:50:42.147Z,8.70
2017-08-30T10:53:09.561Z,10.00
2017-08-30T10:55:36.981Z,12.20
2017-08-30T10:58:04.404Z,9.10
2017-08-30T11:00:32.463Z,9.63
2017-08-30T11:02:59.870Z,9.57
2017-08-30T11:05:27.290Z,7.97
2017-08-30T11:07:54.702Z,9.50
2017-08-30T11:10:22.126Z,9.77
2017-08-30T11:12:49.562Z,8.67
2017-08-30T11:15:16.982Z,9.60
2017-08-30T11:17:44.390Z,9.93
2017-08-30T11:20:11.809Z,11.63
2017-08-30T11:22:39.234Z,10.30
2017-08-30T11:25:07.338Z,9.93
2017-08-30T11:27:34.749Z,9.87
2017-08-30T11:30:02.173Z,9.40
2017-08-30T11:32:29.586Z,9.80
2017-08-30T11:34:57.010Z,12.00
2017-08-30T11:37:24.438Z,10.20
2017-08-30T11:39:51.859Z,10.37
2017-08-30T11:42:19.286Z,11.20
2017-08-30T11:44:46.710Z,12.70
2017-08-30T11:47:14.138Z,10.80
2017-08-30T11:49:41.552Z,10.63
2017-08-30T11:52:08.975Z,10.57
2017-08-30T11:54:36.383Z,13.27
2017-08-30T11:57:03.801Z,9.87
2017-08-30T11:59:31.221Z,10.67
2017-08-30T12:01:58.645Z,10.03
2017-08-30T12:04:26.067Z,10.43
2017-08-30T12:06:53.486Z,9.17
2017-08-30T12:09:21.707Z,9.73
2017-08-30T12:11:49.129Z,10.80
2017-08-30T12:14:16.563Z,11.27
2017-08-30T12:16:43.999Z,16.00
2017-08-30T12:19:11.426Z,10.63
2017-08-30T12:21:39.195Z,11.70
2017-08-30T12:24:08.279Z,11.87
2017-08-30T12:26:36.653Z,11.17
2017-08-30T12:29:04.162Z,15.50
2017-08-30T12:31:31.563Z,12.90
2017-08-30T12:33:59.806Z,12.50
2017-08-30T12:36:27.227Z,12.10
2017-08-30T12:39:00.397Z,15.73
2017-08-30T12:41:27.826Z,12.33
2017-08-30T12:43:55.254Z,13.37
2017-08-30T12:46:22.676Z,15.13
2017-08-30T12:48:50.129Z,12.60
2017-08-30T12:51:17.548Z,14.47
2017-08-30T12:53:44.974Z,13.20
2017-08-30T12:56:12.389Z,12.67
2017-08-30T12:58:39.815Z,14.83
2017-08-30T13:01:07.233Z,13.23
2017-08-30T13:03:34.658Z,10.43
2017-08-30T13:06:02.074Z,10.30
2017-08-30T13:08:29.502Z,10.97
2017-08-30T13:10:56.918Z,10.43
2017-08-30T13:13:24.342Z,9.67
2017-08-30T13:15:52.536Z,11.60
2017-08-30T13:18:19.945Z,16.27
2017-08-30T13:20:47.599Z,11.87
2017-08-30T13:23:14.994Z,10.23
2017-08-30T13:25:42.431Z,19.27
2017-08-30T13:28:09.863Z,10.03
2017-08-30T13:30:37.274Z,10.90
2017-08-30T13:33:04.686Z,9.60
2017-08-30T13:35:32.110Z,11.43
2017-08-30T13:37:59.531Z,17.13
2017-08-30T13:40:26.952Z,11.93
2017-08-30T13:42:54.374Z,8.50
2017-08-30T13:45:22.595Z,7.90
2017-08-30T13:47:50.018Z,11.07
2017-08-30T13:50:17.437Z,8.40
2017-08-30T13:52:44.855Z,10.47
2017-08-30T13:55:12.277Z,11.53
2017-08-30T13:57:39.695Z,10.73
2017-08-30T14:00:07.654Z,7.93
2017-08-30T14:02:35.583Z,11.57
2017-08-30T14:05:03.038Z,8.17
2017-08-30T14:07:30.469Z,11.70
2017-08-30T14:09:57.882Z,11.23
2017-08-30T14:12:25.302Z,10.60
2017-08-30T14:14:52.723Z,9.00
2017-08-30T14:17:20.134Z,14.90
2017-08-30T14:19:47.583Z,13.67
2017-08-30T14:22:15.011Z,8.17
2017-08-30T14:24:42.428Z,7.50
2017-08-30T14:27:09.844Z,8.63
2017-08-30T14:29:37.259Z,9.30
2017-08-30T14:32:04.677Z,7.70
2017-08-30T14:34:32.089Z,9.53
2017-08-30T14:36:59.624Z,8.93
2017-08-30T14:39:27.033Z,9.20
2017-08-30T14:41:54.445Z,7.63
2017-08-30T14:44:21.876Z,9.50
2017-08-30T14:46:49.291Z,8.17
2017-08-30T14:49:16.719Z,7.60
2017-08-30T14:51:44.121Z,8.63
2017-08-30T14:54:11.555Z,10.67
2017-08-30T14:56:38.962Z,8.13
2017-08-30T14:59:06.386Z,11.90
2017-08-30T15:01:33.799Z,10.00
2017-08-30T15:04:01.237Z,7.83
2017-08-30T15:06:28.638Z,8.10
2017-08-30T15:08:56.062Z,8.93
2017-08-30T15:11:23.475Z,12.60
2017-08-30T15:13:50.899Z,11.90
2017-08-30T15:16:18.360Z,8.67
2017-08-30T15:18:45.780Z,10.63
2017-08-30T15:21:13.193Z,7.57
2017-08-30T15:23:40.645Z,7.77
2017-08-30T15:26:08.021Z,6.90
2017-08-30T15:28:35.430Z,10.97
2017-08-30T15:31:02.854Z,10.70
2017-08-30T15:33:30.272Z,6.03
2017-08-30T15:35:57.689Z,8.50
2017-08-30T15:38:25.102Z,6.83
2017-08-30T15:40:52.525Z,7.03
2017-08-30T15:43:19.930Z,6.63
2017-08-30T15:45:47.356Z,5.90
2017-08-30T15:48:14.773Z,9.67
2017-08-30T15:50:42.199Z,7.43
2017-08-30T15:53:09.614Z,7.73
2017-08-30T15:55:37.934Z,7.83
2017-08-30T15:58:05.346Z,8.77
2017-08-30T16:00:32.775Z,8.03
2017-08-30T16:03:00.186Z,7.17
2017-08-30T16:05:27.610Z,5.70
2017-08-30T16:07:55.072Z,5.93
2017-08-30T16:10:22.494Z,6.43
2017-08-30T16:12:49.902Z,5.60
2017-08-30T16:15:17.963Z,5.10
2017-08-30T16:17:45.358Z,6.67
2017-08-30T16:20:12.771Z,4.97
2017-08-30T16:22:40.222Z,7.37
2017-08-30T16:25:07.637Z,6.77
2017-08-30T16:27:35.060Z,4.50
2017-08-30T16:30:02.473Z,9.30
2017-08-30T16:32:29.891Z,4.47
2017-08-30T16:34:57.306Z,6.33
2017-08-30T16:37:25.350Z,6.10
2017-08-30T16:39:52.781Z,5.13
2017-08-30T16:42:20.197Z,14.63
2017-08-30T16:44:57.250Z,8.77
2017-08-30T16:47:24.673Z,5.70
2017-08-30T16:49:52.083Z,5.67
2017-08-30T16:52:19.506Z,7.63
2017-08-30T16:54:46.939Z,8.33
2017-08-30T16:57:14.340Z,5.13
2017-08-30T16:59:41.771Z,6.53
2017-08-30T17:02:09.188Z,8.60
2017-08-30T17:04:36.625Z,9.23
2017-08-30T17:07:04.061Z,6.03
2017-08-30T17:09:31.458Z,7.60
2017-08-30T17:11:58.872Z,7.57
2017-08-30T17:14:26.290Z,8.13
2017-08-30T17:16:53.734Z,4.63
2017-08-30T17:19:21.159Z,4.93
2017-08-30T17:21:48.577Z,4.90
2017-08-30T17:24:15.989Z,9.20
2017-08-30T17:26:44.166Z,6.57
2017-08-30T17:29:11.590Z,6.13
2017-08-30T17:31:39.006Z,3.20
2017-08-30T17:34:06.426Z,4.70
2017-08-30T17:36:34.142Z,6.30
2017-08-30T17:39:01.558Z,7.70
2017-08-30T17:41:29.498Z,6.80
2017-08-30T17:43:56.959Z,7.87
2017-08-30T17:46:25.246Z,7.90
2017-08-30T17:48:52.680Z,10.03
2017-08-30T17:51:20.091Z,8.23
2017-08-30T17:53:47.502Z,4.60
2017-08-30T17:56:14.934Z,4.80
2017-08-30T17:58:42.350Z,6.30
2017-08-30T18:01:09.771Z,4.77
2017-08-30T18:03:37.193Z,7.50
2017-08-30T18:06:04.610Z,8.20
2017-08-30T18:08:32.027Z,3.50
2017-08-30T18:10:59.442Z,5.30
2017-08-30T18:13:26.868Z,10.97
2017-08-30T18:15:54.282Z,5.13
2017-08-30T18:18:21.702Z,4.40
2017-08-30T18:20:49.141Z,7.10
2017-08-30T18:23:17.464Z,3.47
2017-08-30T18:25:44.874Z,2.80
2017-08-30T18:28:12.299Z,3.73
2017-08-30T18:30:39.718Z,7.13
2017-08-30T18:33:07.145Z,6.07
2017-08-30T18:35:34.546Z,5.37
2017-08-30T18:38:01.962Z,6.37
2017-08-30T18:40:29.384Z,5.80
2017-08-30T18:42:56.798Z,7.70
2017-08-30T18:45:24.215Z,7.23
2017-08-30T18:47:51.633Z,5.13
2017-08-30T18:50:19.056Z,4.70
2017-08-30T18:52:46.466Z,4.03
2017-08-30T18:55:13.887Z,5.13
2017-08-30T18:57:41.306Z,5.17
2017-08-30T19:00:08.726Z,5.40
2017-08-30T19:02:36.156Z,3.63
2017-08-30T19:05:03.624Z,6.80
2017-08-30T19:07:31.039Z,4.40
2017-08-30T19:09:58.451Z,4.90
2017-08-30T19:12:25.880Z,2.93
2017-08-30T19:14:53.289Z,9.77
2017-08-30T19:17:20.700Z,4.40
2017-08-30T19:19:48.110Z,7.10
2017-08-30T19:22:15.580Z,7.30
2017-08-30T19:24:42.981Z,6.43
2017-08-30T19:27:10.470Z,4.80
2017-08-30T19:29:37.887Z,5.30
2017-08-30T19:32:05.303Z,4.73
2017-08-30T19:34:33.473Z,4.93
2017-08-30T19:37:00.914Z,5.67
2017-08-30T19:39:28.323Z,5.00
2017-08-30T19:41:55.756Z,4.40
2017-08-30T19:44:23.161Z,4.30
2017-08-30T19:46:50.589Z,8.77
2017-08-30T19:49:18.010Z,6.13
2017-08-30T19:51:45.422Z,5.00
2017-08-30T19:54:12.840Z,3.23
2017-08-30T19:56:40.273Z,3.40
2017-08-30T19:59:07.686Z,4.23
2017-08-30T20:01:35.115Z,5.23
2017-08-30T20:04:02.532Z,4.60
2017-08-30T20:06:29.938Z,6.30
2017-08-30T20:08:57.355Z,4.53
2017-08-30T20:11:24.770Z,5.93
2017-08-30T20:13:52.198Z,8.20
2017-08-30T20:16:19.618Z,5.57
2017-08-30T20:18:47.034Z,6.00
2017-08-30T20:21:14.462Z,6.60
2017-08-30T20:23:41.878Z,4.77
2017-08-30T20:26:09.336Z,5.27
2017-08-30T20:28:36.750Z,3.30
2017-08-30T20:31:05.018Z,4.30
2017-08-30T20:33:32.493Z,8.83
2017-08-30T20:36:00.138Z,4.23
2017-08-30T20:38:27.538Z,7.53
2017-08-30T20:40:54.948Z,7.17
2017-08-30T20:43:22.372Z,7.13
2017-08-30T20:45:49.779Z,5.73
2017-08-30T20:48:17.194Z,5.83
2017-08-30T20:50:44.605Z,4.53
2017-08-30T20:53:12.032Z,5.03
2017-08-30T20:55:39.443Z,7.23
2017-08-30T20:58:06.858Z,5.67
2017-08-30T21:00:34.277Z,7.27
2017-08-30T21:03:01.690Z,9.07
2017-08-30T21:05:29.538Z,5.13
2017-08-30T21:07:56.949Z,6.60
2017-08-30T21:10:24.374Z,5.50
2017-08-30T21:12:52.690Z,7.83
2017-08-30T21:15:20.110Z,7.77
2017-08-30T21:17:47.527Z,4.37
2017-08-30T21:20:14.942Z,4.57
2017-08-30T21:22:42.354Z,4.50
2017-08-30T21:25:10.591Z,4.73
2017-08-30T21:27:37.996Z,3.97
2017-08-30T21:30:05.419Z,5.17
2017-08-30T21:32:33.529Z,5.10
2017-08-30T21:35:00.947Z,5.30
2017-08-30T21:37:28.357Z,4.70
2017-08-30T21:39:55.782Z,8.00
2017-08-30T21:42:23.978Z,5.33
2017-08-30T21:44:51.397Z,4.27
2017-08-30T21:47:18.809Z,5.17
2017-08-30T21:49:46.230Z,9.37
2017-08-30T21:52:13.652Z,5.07
2017-08-30T21:54:41.074Z,4.03
2017-08-30T21:57:08.486Z,7.43
2017-08-30T21:59:35.898Z,4.67
2017-08-30T22:02:03.311Z,3.30
2017-08-30T22:04:30.740Z,6.30
2017-08-30T22:06:58.146Z,6.10
2017-08-30T22:09:25.571Z,5.47
2017-08-30T22:11:52.978Z,6.97
2017-08-30T22:14:20.387Z,5.90
2017-08-30T22:16:47.813Z,7.63
2017-08-30T22:19:15.223Z,4.77
2017-08-30T22:21:42.643Z,6.43
2017-08-30T22:24:10.059Z,6.00
2017-08-30T22:26:37.484Z,7.17
2017-08-30T22:29:04.896Z,3.57
2017-08-30T22:31:32.310Z,6.00
2017-08-30T22:33:59.718Z,5.67
2017-08-30T22:36:27.142Z,4.63
2017-08-30T22:38:54.554Z,4.83
2017-08-30T22:41:22.034Z,5.33
2017-08-30T22:43:49.810Z,8.17
2017-08-30T22:46:17.235Z,4.90
2017-08-30T22:48:44.655Z,5.40
2017-08-30T22:51:12.063Z,5.17
2017-08-30T22:53:39.478Z,9.43
2017-08-30T22:56:06.906Z,5.80
2017-08-30T22:58:34.328Z,13.10
2017-08-30T23:01:01.747Z,5.57
2017-08-30T23:03:29.166Z,5.17
2017-08-30T23:05:56.582Z,6.93
2017-08-30T23:08:24.003Z,3.90
2017-08-30T23:10:51.418Z,6.33
2017-08-30T23:13:19.225Z,5.10
2017-08-30T23:15:47.036Z,6.00
2017-08-30T23:18:14.994Z,3.67
2017-08-30T23:20:42.414Z,6.57
2017-08-30T23:23:09.842Z,5.70
2017-08-30T23:25:37.260Z,3.30
2017-08-30T23:28:05.301Z,5.67
2017-08-30T23:30:32.718Z,3.67
2017-08-30T23:33:00.142Z,5.13
2017-08-30T23:35:27.554Z,3.63
2017-08-30T23:37:55.869Z,4.50
2017-08-30T23:40:23.278Z,4.70
2017-08-30T23:42:50.693Z,5.53
2017-08-30T23:45:18.109Z,5.70
2017-08-30T23:47:45.526Z,3.73
2017-08-30T23:50:12.945Z,3.60
2017-08-30T23:52:40.376Z,4.97
2017-08-30T23:55:07.785Z,3.50
2017-08-30T23:57:35.878Z,3.17
